| time (UTC) | temp F | wind direction | speed MPH | gust MPH | rain 1hr in | rain 24hr in | rain mn in | humidity % | barometer mb |
| 20260507191549 | 58 | 360 | 1.0 | 4.0 | 0.00 | 0.55 | 0.34 | 76 | 1014.4 |
| 20260507190042 | 59 | 304 | 0.0 | 4.0 | 0.00 | 0.55 | 0.34 | 75 | 1014.2 |
| 20260507184541 | 60 | 304 | 2.0 | 5.0 | 0.00 | 0.56 | 0.34 | 74 | 1013.9 |
| 20260507183040 | 61 | 360 | 3.0 | 5.0 | 0.00 | 0.56 | 0.34 | 72 | 1013.5 |
| 20260507181541 | 62 | 47 | 1.0 | 3.0 | 0.00 | 0.56 | 0.34 | 71 | 1013.4 |
| 20260507180045 | 63 | 61 | 1.0 | 4.0 | 0.00 | 0.56 | 0.34 | 69 | 1013.1 |
| 20260507174540 | 64 | 106 | 4.0 | 9.0 | 0.00 | 0.57 | 0.34 | 66 | 1013.1 |
| 20260507173038 | 64 | 142 | 2.0 | 6.0 | 0.00 | 0.57 | 0.34 | 67 | 1012.9 |
| 20260507171537 | 65 | 151 | 1.0 | 8.0 | 0.00 | 0.57 | 0.34 | 65 | 1012.8 |
| 20260507170037 | 66 | 149 | 4.0 | 10.0 | 0.00 | 0.57 | 0.34 | 63 | 1012.8 |
| 20260507164536 | 69 | 146 | 3.0 | 9.0 | 0.00 | 0.60 | 0.34 | 54 | 1012.6 |
| 20260507163035 | 71 | 96 | 3.0 | 8.0 | 0.00 | 0.60 | 0.34 | 54 | 1012.7 |
| 20260507161532 | 70 | 68 | 3.0 | 8.0 | 0.00 | 0.60 | 0.34 | 56 | 1012.7 |
| 20260507160036 | 69 | 134 | 2.0 | 4.0 | 0.00 | 0.60 | 0.34 | 57 | 1012.7 |
| 20260507154531 | 67 | 138 | 2.0 | 5.0 | 0.00 | 0.92 | 0.34 | 61 | 1012.7 |
| 20260507153034 | 70 | 127 | 4.0 | 8.0 | 0.00 | 0.92 | 0.34 | 57 | 1012.7 |
| 20260507151530 | 66 | 215 | 3.0 | 9.0 | 0.00 | 0.92 | 0.34 | 62 | 1012.8 |
| 20260507150030 | 66 | 124 | 2.0 | 8.0 | 0.00 | 0.92 | 0.34 | 64 | 1013.0 |
| 20260507144531 | 66 | 134 | 7.0 | 12.0 | 0.00 | 1.13 | 0.34 | 62 | 1013.1 |
| 20260507143032 | 68 | 150 | 7.0 | 10.0 | 0.00 | 1.13 | 0.34 | 51 | 1013.1 |
| 20260507141526 | 70 | 129 | 5.0 | 13.0 | 0.00 | 1.13 | 0.34 | 46 | 1012.9 |
| 20260507140028 | 69 | 149 | 7.0 | 11.0 | 0.00 | 1.13 | 0.34 | 49 | 1013.0 |
| 20260507134526 | 68 | 86 | 5.0 | 10.0 | 0.00 | 1.15 | 0.34 | 54 | 1013.0 |
| 20260507133022 | 67 | 169 | 5.0 | 10.0 | 0.00 | 1.15 | 0.34 | 61 | 1013.3 |
| 20260507131525 | 65 | 131 | 4.0 | 8.0 | 0.00 | 1.15 | 0.34 | 65 | 1013.5 |
| 20260507130019 | 69 | 137 | 3.0 | 13.0 | 0.00 | 1.15 | 0.34 | 58 | 1013.5 |
| 20260507124518 | 68 | 195 | 6.0 | 10.0 | 0.00 | 1.17 | 0.34 | 51 | 1013.5 |
| 20260507123021 | 66 | 97 | 0.0 | 4.0 | 0.00 | 1.17 | 0.34 | 61 | 1013.7 |
| 20260507121510 | 65 | 148 | 4.0 | 8.0 | 0.00 | 1.17 | 0.34 | 63 | 1013.9 |
| 20260507120006 | 64 | 238 | 3.0 | 7.0 | 0.00 | 1.17 | 0.34 | 66 | 1014.0 |
| 20260507114508 | 64 | 233 | 2.0 | 7.0 | 0.00 | 1.17 | 0.34 | 64 | 1014.1 |
| 20260507113005 | 62 | 222 | 3.0 | 10.0 | 0.00 | 1.17 | 0.34 | 62 | 1014.3 |
| 20260507111503 | 62 | 211 | 5.0 | 8.0 | 0.00 | 1.17 | 0.34 | 62 | 1014.4 |
| 20260507110008 | 63 | 138 | 4.0 | 7.0 | 0.00 | 1.22 | 0.34 | 63 | 1014.5 |
| 20260507104600 | 62 | 85 | 5.0 | 8.0 | 0.00 | 1.22 | 0.34 | 70 | 1014.6 |
| 20260507104501 | 62 | 82 | 4.0 | 8.0 | 0.00 | 1.22 | 0.34 | 70 | 1014.6 |
| 20260507103100 | 62 | 238 | 3.0 | 7.0 | 0.00 | 1.22 | 0.34 | 71 | 1014.8 |
| 20260507101606 | 61 | 236 | 3.0 | 7.0 | 0.00 | 1.22 | 0.34 | 71 | 1014.8 |
| 20260507100055 | 61 | 119 | 4.0 | 9.0 | 0.00 | 1.22 | 0.34 | 72 | 1014.9 |
| 20260507094559 | 61 | 199 | 2.0 | 6.0 | 0.00 | 1.39 | 0.34 | 72 | 1014.9 |
| 20260507093049 | 60 | 184 | 3.0 | 5.0 | 0.00 | 1.39 | 0.34 | 72 | 1014.9 |
| 20260507091600 | 59 | 217 | 2.0 | 5.0 | 0.00 | 1.39 | 0.34 | 73 | 1015.2 |
| 20260507090108 | 60 | 253 | 2.0 | 8.0 | 0.00 | 1.39 | 0.34 | 72 | 1015.2 |
| 20260507084545 | 59 | 290 | 1.0 | 5.0 | 0.00 | 1.42 | 0.34 | 76 | 1015.2 |
| 20260507083042 | 58 | 252 | 3.0 | 9.0 | 0.00 | 1.42 | 0.34 | 78 | 1015.3 |
| 20260507081550 | 56 | 288 | 3.0 | 8.0 | 0.00 | 1.42 | 0.34 | 79 | 1015.2 |
| 20260507080035 | 56 | 302 | 5.0 | 9.0 | 0.00 | 1.42 | 0.34 | 81 | 1015.2 |
| 20260507074538 | 55 | 248 | 2.0 | 9.0 | 0.00 | 1.48 | 0.34 | 84 | 1015.3 |
| 20260507073036 | 54 | 281 | 2.0 | 8.0 | 0.00 | 1.48 | 0.34 | 83 | 1015.4 |
| 20260507071528 | 53 | 360 | 1.0 | 4.0 | 0.00 | 1.48 | 0.34 | 84 | 1015.4 |
| 20260507070024 | 51 | 13 | 1.0 | 5.0 | 0.00 | 1.48 | 0.34 | 87 | 1015.4 |
| 20260507064521 | 51 | 288 | 2.0 | 5.0 | 0.00 | 1.53 | 0.34 | 90 | 1015.3 |
| 20260507063017 | 50 | 265 | 3.0 | 6.0 | 0.00 | 1.53 | 0.34 | 91 | 1015.4 |
| 20260507061529 | 50 | 319 | 1.0 | 5.0 | 0.00 | 1.53 | 0.34 | 92 | 1015.4 |
| 20260507060028 | 49 | 286 | 0.0 | 3.0 | 0.00 | 1.53 | 0.34 | 94 | 1015.4 |
| 20260507054514 | 48 | 312 | 1.0 | 3.0 | 0.00 | 1.62 | 0.34 | 94 | 1015.3 |
| 20260507053015 | 48 | 355 | 1.0 | 5.0 | 0.00 | 1.62 | 0.34 | 94 | 1015.2 |
| 20260507051513 | 48 | 281 | 2.0 | 5.0 | 0.00 | 1.62 | 0.34 | 94 | 1015.1 |
| 20260507050027 | 48 | 298 | 0.0 | 2.0 | 0.00 | 1.62 | 0.34 | 94 | 1014.9 |
| 20260507044526 | 47 | 299 | 0.0 | 2.0 | 0.00 | 1.62 | 0.34 | 93 | 1014.9 |
| 20260507043010 | 47 | 302 | 0.0 | 4.0 | 0.00 | 1.62 | 0.34 | 93 | 1014.9 |
| 20260507041509 | 47 | 9 | 2.0 | 4.0 | 0.00 | 1.62 | 0.34 | 93 | 1014.9 |
| 20260507040010 | 47 | 38 | 1.0 | 3.0 | 0.00 | 1.63 | 0.34 | 93 | 1015.0 |
| 20260507034507 | 47 | 73 | 0.0 | 3.0 | 0.00 | 1.63 | 0.34 | 93 | 1014.9 |
| 20260507033009 | 47 | 77 | 0.0 | 2.0 | 0.01 | 1.63 | 0.34 | 93 | 1014.9 |
| 20260507031504 | 48 | 325 | 1.0 | 3.0 | 0.02 | 1.63 | 0.34 | 93 | 1014.9 |
| 20260507030002 | 48 | 94 | 0.0 | 4.0 | 0.03 | 1.65 | 0.34 | 94 | 1014.9 |
| 20260507024501 | 48 | 245 | 2.0 | 5.0 | 0.03 | 1.65 | 0.34 | 94 | 1014.6 |
| 20260507023100 | 48 | 312 | 1.0 | 3.0 | 0.03 | 1.64 | 0.33 | 94 | 1015.0 |
| 20260507021617 | 48 | 348 | 1.0 | 3.0 | 0.03 | 1.63 | 0.32 | 94 | 1014.8 |
| 20260507020107 | 48 | 99 | 1.0 | 4.0 | 0.02 | 1.62 | 0.31 | 94 | 1014.9 |
| 20260507014615 | 48 | 279 | 0.0 | 3.0 | 0.02 | 1.65 | 0.31 | 94 | 1014.6 |
| 20260507013058 | 48 | 63 | 0.0 | 3.0 | 0.02 | 1.64 | 0.30 | 94 | 1014.5 |
| 20260507011558 | 48 | 355 | 0.0 | 2.0 | 0.02 | 1.63 | 0.28 | 94 | 1014.6 |
| 20260507010109 | 48 | 313 | 1.0 | 2.0 | 0.05 | 1.63 | 0.28 | 94 | 1014.7 |
| 20260507004555 | 48 | 281 | 1.0 | 4.0 | 0.06 | 1.68 | 0.28 | 94 | 1014.6 |
| 20260507003055 | 48 | 75 | 1.0 | 8.0 | 0.09 | 1.67 | 0.28 | 94 | 1014.8 |
| 20260507001558 | 49 | 292 | 3.0 | 4.0 | 0.11 | 1.66 | 0.27 | 94 | 1014.8 |
| 20260507000053 | 49 | 161 | 2.0 | 8.0 | 0.10 | 1.63 | 0.24 | 94 | 1014.9 |
| 20260506234553 | 49 | 254 | 1.0 | 9.0 | 0.12 | 1.72 | 0.23 | 92 | 1014.7 |
| 20260506233053 | 49 | 296 | 2.0 | 4.0 | 0.11 | 1.68 | 0.19 | 93 | 1015.3 |
| 20260506231546 | 49 | 99 | 0.0 | 2.0 | 0.16 | 1.65 | 0.16 | 93 | 1015.1 |
| 20260506230044 | 49 | 155 | 0.0 | 1.0 | 0.14 | 1.63 | 0.14 | 93 | 1014.7 |
| 20260506224542 | 49 | 180 | 1.0 | 4.0 | 0.11 | 1.63 | 0.11 | 92 | 1014.5 |
| 20260506223041 | 49 | 317 | 2.0 | 5.0 | 0.08 | 1.60 | 0.08 | 91 | 1014.3 |
| 20260506221539 | 49 | 27 | 2.0 | 4.0 | 0.00 | 1.52 | 0.00 | 92 | 1014.5 |
| 20260506220039 | 49 | 82 | 3.0 | 5.0 | 0.00 | 1.52 | 0.00 | 91 | 1014.2 |
| 20260506214536 | 49 | 67 | 0.0 | 3.0 | 0.00 | 1.52 | 1.52 | 91 | 1013.9 |
| 20260506213036 | 49 | 320 | 1.0 | 4.0 | 0.00 | 1.52 | 1.52 | 90 | 1013.8 |
| 20260506211535 | 50 | 250 | 1.0 | 6.0 | 0.00 | 1.52 | 1.52 | 89 | 1013.9 |
| 20260506210034 | 50 | 273 | 5.0 | 12.0 | 0.03 | 1.52 | 1.52 | 88 | 1013.9 |
| 20260506204534 | 50 | 314 | 2.0 | 5.0 | 0.11 | 1.52 | 1.52 | 89 | 1014.0 |
| 20260506203033 | 50 | 5 | 3.0 | 14.0 | 0.15 | 1.52 | 1.52 | 90 | 1013.7 |
| 20260506201543 | 49 | 244 | 9.0 | 21.0 | 0.18 | 1.52 | 1.52 | 93 | 1013.5 |
| 20260506200031 | 49 | 277 | 6.0 | 10.0 | 0.18 | 1.49 | 1.49 | 93 | 1013.4 |
| 20260506194529 | 50 | 101 | 0.0 | 7.0 | 0.11 | 1.41 | 1.41 | 92 | 1014.6 |
| 20260506193025 | 50 | 76 | 0.0 | 7.0 | 0.07 | 1.37 | 1.37 | 91 | 1013.9 |